You are listening to:
LKPR Approach - Prague, Czech Republic

LKPR 251811Z 32015KT 9999 -RA SCT025 BKN040 10/06 Q1029 RMK REG QNH 1024

If stream doesn't start automatically press the play button
If stream stops then reload player then press play